sensor_id;sensor_type;location;lat;lon;timestamp;temperature;humidity
75466;HTU21D;64049;46.290;44.240;2023-05-29T00:00:21;20.49;65.34
75466;HTU21D;64049;46.290;44.240;2023-05-29T00:02:49;20.47;65.31
75466;HTU21D;64049;46.290;44.240;2023-05-29T00:05:16;20.43;65.49
75466;HTU21D;64049;46.290;44.240;2023-05-29T00:07:43;20.43;65.48
75466;HTU21D;64049;46.290;44.240;2023-05-29T00:10:10;20.40;65.44
75466;HTU21D;64049;46.290;44.240;2023-05-29T00:12:37;20.39;65.52
75466;HTU21D;64049;46.290;44.240;2023-05-29T00:15:04;20.36;65.60
75466;HTU21D;64049;46.290;44.240;2023-05-29T00:17:31;20.34;65.53
75466;HTU21D;64049;46.290;44.240;2023-05-29T00:20:00;20.33;65.52
75466;HTU21D;64049;46.290;44.240;2023-05-29T00:22:27;20.31;65.43
75466;HTU21D;64049;46.290;44.240;2023-05-29T00:24:53;20.28;65.46
75466;HTU21D;64049;46.290;44.240;2023-05-29T00:27:19;20.25;65.46
75466;HTU21D;64049;46.290;44.240;2023-05-29T00:29:46;20.21;65.42
75466;HTU21D;64049;46.290;44.240;2023-05-29T00:32:12;20.17;65.46
75466;HTU21D;64049;46.290;44.240;2023-05-29T00:34:38;20.17;65.37
75466;HTU21D;64049;46.290;44.240;2023-05-29T00:37:04;20.16;65.29
75466;HTU21D;64049;46.290;44.240;2023-05-29T00:39:30;20.16;65.25
75466;HTU21D;64049;46.290;44.240;2023-05-29T00:41:56;20.17;65.21
75466;HTU21D;64049;46.290;44.240;2023-05-29T00:44:22;20.19;65.07
75466;HTU21D;64049;46.290;44.240;2023-05-29T00:46:51;20.19;64.99
75466;HTU21D;64049;46.290;44.240;2023-05-29T00:49:22;20.19;64.95
75466;HTU21D;64049;46.290;44.240;2023-05-29T00:51:51;20.19;64.92
75466;HTU21D;64049;46.290;44.240;2023-05-29T00:54:22;20.18;64.90
75466;HTU21D;64049;46.290;44.240;2023-05-29T00:56:50;20.17;64.79
75466;HTU21D;64049;46.290;44.240;2023-05-29T00:59:16;20.14;64.88
75466;HTU21D;64049;46.290;44.240;2023-05-29T01:01:44;20.11;64.90
75466;HTU21D;64049;46.290;44.240;2023-05-29T01:04:11;20.07;65.03
75466;HTU21D;64049;46.290;44.240;2023-05-29T01:06:40;20.04;65.06
75466;HTU21D;64049;46.290;44.240;2023-05-29T01:09:07;19.98;65.18
75466;HTU21D;64049;46.290;44.240;2023-05-29T01:14:33;19.89;65.40
75466;HTU21D;64049;46.290;44.240;2023-05-29T01:17:23;19.89;65.45
75466;HTU21D;64049;46.290;44.240;2023-05-29T01:28:26;19.84;65.37
75466;HTU21D;64049;46.290;44.240;2023-05-29T01:30:54;19.83;65.24
75466;HTU21D;64049;46.290;44.240;2023-05-29T01:33:20;19.84;65.27
75466;HTU21D;64049;46.290;44.240;2023-05-29T01:35:49;19.83;65.20
75466;HTU21D;64049;46.290;44.240;2023-05-29T01:38:15;19.84;65.13
75466;HTU21D;64049;46.290;44.240;2023-05-29T01:40:43;19.84;65.13
75466;HTU21D;64049;46.290;44.240;2023-05-29T01:43:09;19.83;65.03
75466;HTU21D;64049;46.290;44.240;2023-05-29T01:45:36;19.83;65.02
75466;HTU21D;64049;46.290;44.240;2023-05-29T01:48:02;19.83;65.08
75466;HTU21D;64049;46.290;44.240;2023-05-29T01:50:29;19.81;65.13
75466;HTU21D;64049;46.290;44.240;2023-05-29T01:52:56;19.81;65.14
75466;HTU21D;64049;46.290;44.240;2023-05-29T01:55:21;19.81;65.09
75466;HTU21D;64049;46.290;44.240;2023-05-29T01:57:48;19.80;65.15
75466;HTU21D;64049;46.290;44.240;2023-05-29T02:00:17;19.80;65.08
75466;HTU21D;64049;46.290;44.240;2023-05-29T02:02:46;19.82;65.04
75466;HTU21D;64049;46.290;44.240;2023-05-29T02:05:13;19.81;64.95
75466;HTU21D;64049;46.290;44.240;2023-05-29T02:07:39;19.82;64.92
75466;HTU21D;64049;46.290;44.240;2023-05-29T02:10:06;19.83;64.83
75466;HTU21D;64049;46.290;44.240;2023-05-29T02:12:32;19.82;64.69
75466;HTU21D;64049;46.290;44.240;2023-05-29T02:14:58;19.87;64.64
75466;HTU21D;64049;46.290;44.240;2023-05-29T02:17:25;19.91;64.56
75466;HTU21D;64049;46.290;44.240;2023-05-29T02:19:52;19.95;64.40
75466;HTU21D;64049;46.290;44.240;2023-05-29T02:22:18;19.98;64.34
75466;HTU21D;64049;46.290;44.240;2023-05-29T02:24:44;20.01;64.14
75466;HTU21D;64049;46.290;44.240;2023-05-29T02:27:10;20.06;63.92
75466;HTU21D;64049;46.290;44.240;2023-05-29T02:29:36;20.11;63.73
75466;HTU21D;64049;46.290;44.240;2023-05-29T02:32:02;20.15;63.60
75466;HTU21D;64049;46.290;44.240;2023-05-29T02:34:28;20.19;63.40
75466;HTU21D;64049;46.290;44.240;2023-05-29T02:36:54;20.25;63.24
75466;HTU21D;64049;46.290;44.240;2023-05-29T02:39:20;20.30;63.06
75466;HTU21D;64049;46.290;44.240;2023-05-29T02:41:46;20.35;62.84
75466;HTU21D;64049;46.290;44.240;2023-05-29T02:44:12;20.40;62.76
75466;HTU21D;64049;46.290;44.240;2023-05-29T02:46:38;20.43;62.57
75466;HTU21D;64049;46.290;44.240;2023-05-29T02:49:04;20.47;62.50
75466;HTU21D;64049;46.290;44.240;2023-05-29T02:51:30;20.49;62.44
75466;HTU21D;64049;46.290;44.240;2023-05-29T02:53:58;20.53;62.34
75466;HTU21D;64049;46.290;44.240;2023-05-29T02:56:24;20.59;62.05
75466;HTU21D;64049;46.290;44.240;2023-05-29T02:58:50;20.64;61.94
75466;HTU21D;64049;46.290;44.240;2023-05-29T03:01:17;20.72;61.66
75466;HTU21D;64049;46.290;44.240;2023-05-29T03:03:43;20.77;61.38
75466;HTU21D;64049;46.290;44.240;2023-05-29T03:06:09;20.83;61.18
75466;HTU21D;64049;46.290;44.240;2023-05-29T03:08:35;20.90;61.09
75466;HTU21D;64049;46.290;44.240;2023-05-29T03:11:09;20.95;60.85
75466;HTU21D;64049;46.290;44.240;2023-05-29T03:13:39;21.06;60.56
75466;HTU21D;64049;46.290;44.240;2023-05-29T03:16:07;21.17;60.15
75466;HTU21D;64049;46.290;44.240;2023-05-29T03:18:37;21.24;59.98
75466;HTU21D;64049;46.290;44.240;2023-05-29T03:21:03;21.32;59.57
75466;HTU21D;64049;46.290;44.240;2023-05-29T03:23:32;21.40;59.45
75466;HTU21D;64049;46.290;44.240;2023-05-29T03:25:58;21.48;58.96
75466;HTU21D;64049;46.290;44.240;2023-05-29T03:28:24;21.59;58.76
75466;HTU21D;64049;46.290;44.240;2023-05-29T03:30:52;21.70;58.51
75466;HTU21D;64049;46.290;44.240;2023-05-29T03:33:20;21.80;58.45
75466;HTU21D;64049;46.290;44.240;2023-05-29T03:36:21;21.89;58.34
75466;HTU21D;64049;46.290;44.240;2023-05-29T03:38:48;21.95;58.36
75466;HTU21D;64049;46.290;44.240;2023-05-29T03:41:13;22.01;58.12
75466;HTU21D;64049;46.290;44.240;2023-05-29T03:43:40;22.09;57.95
75466;HTU21D;64049;46.290;44.240;2023-05-29T03:46:06;22.18;57.76
75466;HTU21D;64049;46.290;44.240;2023-05-29T03:48:34;22.31;57.50
75466;HTU21D;64049;46.290;44.240;2023-05-29T03:51:00;22.40;57.24
75466;HTU21D;64049;46.290;44.240;2023-05-29T03:53:31;22.53;56.92
75466;HTU21D;64049;46.290;44.240;2023-05-29T03:55:57;22.65;56.55
75466;HTU21D;64049;46.290;44.240;2023-05-29T03:58:23;22.73;56.52
75466;HTU21D;64049;46.290;44.240;2023-05-29T04:00:49;22.78;56.51
75466;HTU21D;64049;46.290;44.240;2023-05-29T04:03:17;22.82;56.42
75466;HTU21D;64049;46.290;44.240;2023-05-29T04:05:45;22.87;56.07
75466;HTU21D;64049;46.290;44.240;2023-05-29T04:08:12;22.93;55.97
75466;HTU21D;64049;46.290;44.240;2023-05-29T04:10:39;22.99;56.03
75466;HTU21D;64049;46.290;44.240;2023-05-29T04:13:05;23.10;55.97
75466;HTU21D;64049;46.290;44.240;2023-05-29T04:15:32;23.18;55.81
75466;HTU21D;64049;46.290;44.240;2023-05-29T04:18:03;23.27;55.68
75466;HTU21D;64049;46.290;44.240;2023-05-29T04:20:29;23.37;55.73
75466;HTU21D;64049;46.290;44.240;2023-05-29T04:22:58;23.47;55.35
75466;HTU21D;64049;46.290;44.240;2023-05-29T04:25:24;23.54;54.87
75466;HTU21D;64049;46.290;44.240;2023-05-29T04:27:51;23.58;54.54
75466;HTU21D;64049;46.290;44.240;2023-05-29T04:30:19;23.59;54.42
75466;HTU21D;64049;46.290;44.240;2023-05-29T04:32:47;23.64;54.49
75466;HTU21D;64049;46.290;44.240;2023-05-29T04:35:14;23.71;54.34
75466;HTU21D;64049;46.290;44.240;2023-05-29T04:37:52;23.76;54.29
75466;HTU21D;64049;46.290;44.240;2023-05-29T04:40:19;23.79;54.12
75466;HTU21D;64049;46.290;44.240;2023-05-29T04:42:46;23.82;54.12
75466;HTU21D;64049;46.290;44.240;2023-05-29T04:45:13;23.88;54.17
75466;HTU21D;64049;46.290;44.240;2023-05-29T04:47:40;23.88;54.08
75466;HTU21D;64049;46.290;44.240;2023-05-29T04:50:11;23.94;54.16
75466;HTU21D;64049;46.290;44.240;2023-05-29T04:52:37;23.99;54.16
75466;HTU21D;64049;46.290;44.240;2023-05-29T04:55:05;24.02;54.01
75466;HTU21D;64049;46.290;44.240;2023-05-29T04:57:31;24.13;54.05
75466;HTU21D;64049;46.290;44.240;2023-05-29T04:59:57;24.26;53.93
75466;HTU21D;64049;46.290;44.240;2023-05-29T05:02:23;24.36;53.79
75466;HTU21D;64049;46.290;44.240;2023-05-29T05:04:49;24.43;53.55
75466;HTU21D;64049;46.290;44.240;2023-05-29T05:07:15;24.48;53.54
75466;HTU21D;64049;46.290;44.240;2023-05-29T05:09:42;24.55;53.29
75466;HTU21D;64049;46.290;44.240;2023-05-29T05:12:13;24.61;53.04
75466;HTU21D;64049;46.290;44.240;2023-05-29T05:14:39;24.70;52.99
75466;HTU21D;64049;46.290;44.240;2023-05-29T05:17:05;24.80;52.88
75466;HTU21D;64049;46.290;44.240;2023-05-29T05:19:31;24.91;52.69
75466;HTU21D;64049;46.290;44.240;2023-05-29T05:21:57;24.98;52.72
75466;HTU21D;64049;46.290;44.240;2023-05-29T05:24:23;24.97;52.67
75466;HTU21D;64049;46.290;44.240;2023-05-29T05:26:49;24.97;52.60
75466;HTU21D;64049;46.290;44.240;2023-05-29T05:29:15;24.98;52.74
75466;HTU21D;64049;46.290;44.240;2023-05-29T05:31:41;25.01;52.78
75466;HTU21D;64049;46.290;44.240;2023-05-29T05:34:08;25.03;52.59
75466;HTU21D;64049;46.290;44.240;2023-05-29T05:36:33;25.03;52.68
75466;HTU21D;64049;46.290;44.240;2023-05-29T05:39:07;25.08;52.54
75466;HTU21D;64049;46.290;44.240;2023-05-29T05:41:33;25.17;52.44
75466;HTU21D;64049;46.290;44.240;2023-05-29T05:44:00;25.28;52.15
75466;HTU21D;64049;46.290;44.240;2023-05-29T05:46:37;25.40;52.04
75466;HTU21D;64049;46.290;44.240;2023-05-29T05:49:03;25.54;51.73
75466;HTU21D;64049;46.290;44.240;2023-05-29T05:51:30;25.68;51.90
75466;HTU21D;64049;46.290;44.240;2023-05-29T05:53:57;25.88;51.60
75466;HTU21D;64049;46.290;44.240;2023-05-29T05:56:23;26.03;50.71
75466;HTU21D;64049;46.290;44.240;2023-05-29T05:58:50;26.22;50.36
75466;HTU21D;64049;46.290;44.240;2023-05-29T06:01:18;26.46;49.62
75466;HTU21D;64049;46.290;44.240;2023-05-29T06:03:44;26.64;49.60
75466;HTU21D;64049;46.290;44.240;2023-05-29T06:06:10;26.82;49.11
75466;HTU21D;64049;46.290;44.240;2023-05-29T06:08:39;27.00;49.02
75466;HTU21D;64049;46.290;44.240;2023-05-29T06:11:07;27.09;48.53
75466;HTU21D;64049;46.290;44.240;2023-05-29T06:13:36;27.07;48.41
75466;HTU21D;64049;46.290;44.240;2023-05-29T06:16:07;27.12;48.37
75466;HTU21D;64049;46.290;44.240;2023-05-29T06:18:34;27.08;48.27
75466;HTU21D;64049;46.290;44.240;2023-05-29T06:21:01;27.16;48.29
75466;HTU21D;64049;46.290;44.240;2023-05-29T06:23:29;27.35;47.64
75466;HTU21D;64049;46.290;44.240;2023-05-29T06:25:55;27.53;46.70
75466;HTU21D;64049;46.290;44.240;2023-05-29T06:28:21;27.70;46.45
75466;HTU21D;64049;46.290;44.240;2023-05-29T06:30:48;27.87;45.96
75466;HTU21D;64049;46.290;44.240;2023-05-29T06:33:14;28.12;45.67
75466;HTU21D;64049;46.290;44.240;2023-05-29T06:35:41;28.30;45.20
75466;HTU21D;64049;46.290;44.240;2023-05-29T06:38:07;28.35;44.05
75466;HTU21D;64049;46.290;44.240;2023-05-29T06:40:33;28.58;44.17
75466;HTU21D;64049;46.290;44.240;2023-05-29T06:43:00;28.84;43.83
75466;HTU21D;64049;46.290;44.240;2023-05-29T06:45:39;29.01;43.32
75466;HTU21D;64049;46.290;44.240;2023-05-29T06:48:06;29.12;42.80
75466;HTU21D;64049;46.290;44.240;2023-05-29T06:50:32;29.29;42.71
75466;HTU21D;64049;46.290;44.240;2023-05-29T06:53:12;29.59;43.00
75466;HTU21D;64049;46.290;44.240;2023-05-29T06:55:46;29.86;41.81
75466;HTU21D;64049;46.290;44.240;2023-05-29T06:58:12;29.96;41.25
75466;HTU21D;64049;46.290;44.240;2023-05-29T07:00:38;29.95;41.13
75466;HTU21D;64049;46.290;44.240;2023-05-29T07:03:27;29.98;41.26
75466;HTU21D;64049;46.290;44.240;2023-05-29T07:05:54;30.08;40.52
75466;HTU21D;64049;46.290;44.240;2023-05-29T07:08:20;30.32;39.86
75466;HTU21D;64049;46.290;44.240;2023-05-29T07:10:46;30.48;39.78
75466;HTU21D;64049;46.290;44.240;2023-05-29T07:13:15;30.38;39.19
75466;HTU21D;64049;46.290;44.240;2023-05-29T07:15:42;30.32;40.15
75466;HTU21D;64049;46.290;44.240;2023-05-29T07:18:10;30.46;39.95
75466;HTU21D;64049;46.290;44.240;2023-05-29T07:20:36;30.39;39.00
75466;HTU21D;64049;46.290;44.240;2023-05-29T07:23:03;30.39;38.41
75466;HTU21D;64049;46.290;44.240;2023-05-29T07:25:29;30.57;38.42
75466;HTU21D;64049;46.290;44.240;2023-05-29T07:27:57;30.59;37.98
75466;HTU21D;64049;46.290;44.240;2023-05-29T07:30:23;30.53;38.29
75466;HTU21D;64049;46.290;44.240;2023-05-29T07:32:50;30.38;38.86
75466;HTU21D;64049;46.290;44.240;2023-05-29T07:35:16;30.34;39.53
75466;HTU21D;64049;46.290;44.240;2023-05-29T07:37:42;30.19;38.43
75466;HTU21D;64049;46.290;44.240;2023-05-29T07:40:11;30.09;39.14
75466;HTU21D;64049;46.290;44.240;2023-05-29T07:42:56;30.16;38.65
75466;HTU21D;64049;46.290;44.240;2023-05-29T07:45:24;30.24;38.50
75466;HTU21D;64049;46.290;44.240;2023-05-29T07:47:51;30.37;38.58
75466;HTU21D;64049;46.290;44.240;2023-05-29T07:50:17;30.48;38.01
75466;HTU21D;64049;46.290;44.240;2023-05-29T07:52:44;30.70;38.38
75466;HTU21D;64049;46.290;44.240;2023-05-29T07:55:09;30.85;38.26
75466;HTU21D;64049;46.290;44.240;2023-05-29T07:57:37;31.00;37.71
75466;HTU21D;64049;46.290;44.240;2023-05-29T08:00:03;31.06;37.37
75466;HTU21D;64049;46.290;44.240;2023-05-29T08:02:45;31.15;37.51
75466;HTU21D;64049;46.290;44.240;2023-05-29T08:05:36;31.31;36.74
75466;HTU21D;64049;46.290;44.240;2023-05-29T08:08:08;31.54;36.67
75466;HTU21D;64049;46.290;44.240;2023-05-29T08:10:35;31.68;36.21
75466;HTU21D;64049;46.290;44.240;2023-05-29T08:13:02;31.80;36.08
75466;HTU21D;64049;46.290;44.240;2023-05-29T08:15:30;31.67;36.02
75466;HTU21D;64049;46.290;44.240;2023-05-29T08:17:57;31.58;35.96
75466;HTU21D;64049;46.290;44.240;2023-05-29T08:20:23;31.45;35.44
75466;HTU21D;64049;46.290;44.240;2023-05-29T08:22:49;31.29;36.22
75466;HTU21D;64049;46.290;44.240;2023-05-29T08:25:15;31.24;36.22
75466;HTU21D;64049;46.290;44.240;2023-05-29T08:27:41;31.24;36.38
75466;HTU21D;64049;46.290;44.240;2023-05-29T08:30:07;31.12;35.85
75466;HTU21D;64049;46.290;44.240;2023-05-29T08:32:33;31.10;36.56
75466;HTU21D;64049;46.290;44.240;2023-05-29T08:34:59;31.16;36.53
75466;HTU21D;64049;46.290;44.240;2023-05-29T08:37:25;31.02;36.81
75466;HTU21D;64049;46.290;44.240;2023-05-29T08:39:51;30.94;37.43
75466;HTU21D;64049;46.290;44.240;2023-05-29T08:42:21;30.95;38.03
75466;HTU21D;64049;46.290;44.240;2023-05-29T08:44:53;30.92;37.94
75466;HTU21D;64049;46.290;44.240;2023-05-29T08:47:26;30.94;38.04
75466;HTU21D;64049;46.290;44.240;2023-05-29T08:49:53;30.95;37.89
75466;HTU21D;64049;46.290;44.240;2023-05-29T08:52:22;30.92;38.14
75466;HTU21D;64049;46.290;44.240;2023-05-29T08:54:51;31.01;37.95
75466;HTU21D;64049;46.290;44.240;2023-05-29T08:57:18;30.98;37.06
75466;HTU21D;64049;46.290;44.240;2023-05-29T08:59:44;31.05;37.56
75466;HTU21D;64049;46.290;44.240;2023-05-29T09:02:11;31.15;37.59
75466;HTU21D;64049;46.290;44.240;2023-05-29T09:04:37;31.11;37.44
75466;HTU21D;64049;46.290;44.240;2023-05-29T09:07:03;31.15;37.16
75466;HTU21D;64049;46.290;44.240;2023-05-29T09:09:31;31.26;36.88
75466;HTU21D;64049;46.290;44.240;2023-05-29T09:11:57;31.43;36.88
75466;HTU21D;64049;46.290;44.240;2023-05-29T09:17:00;32.00;35.86
75466;HTU21D;64049;46.290;44.240;2023-05-29T09:19:26;32.31;35.70
75466;HTU21D;64049;46.290;44.240;2023-05-29T09:21:56;32.43;34.89
75466;HTU21D;64049;46.290;44.240;2023-05-29T09:24:25;32.68;35.30
75466;HTU21D;64049;46.290;44.240;2023-05-29T09:26:53;32.70;34.61
75466;HTU21D;64049;46.290;44.240;2023-05-29T09:29:19;32.67;34.29
75466;HTU21D;64049;46.290;44.240;2023-05-29T09:31:46;32.67;33.89
75466;HTU21D;64049;46.290;44.240;2023-05-29T09:34:12;32.71;34.41
75466;HTU21D;64049;46.290;44.240;2023-05-29T09:36:38;32.68;33.39
75466;HTU21D;64049;46.290;44.240;2023-05-29T09:39:04;32.53;33.04
75466;HTU21D;64049;46.290;44.240;2023-05-29T09:41:31;32.54;33.47
75466;HTU21D;64049;46.290;44.240;2023-05-29T09:43:59;32.59;33.66
75466;HTU21D;64049;46.290;44.240;2023-05-29T09:46:26;32.56;32.49
75466;HTU21D;64049;46.290;44.240;2023-05-29T09:48:52;32.60;33.07
75466;HTU21D;64049;46.290;44.240;2023-05-29T09:51:22;32.62;32.58
75466;HTU21D;64049;46.290;44.240;2023-05-29T09:53:48;32.69;32.27
75466;HTU21D;64049;46.290;44.240;2023-05-29T09:56:16;32.81;33.05
75466;HTU21D;64049;46.290;44.240;2023-05-29T09:58:46;32.90;32.61
75466;HTU21D;64049;46.290;44.240;2023-05-29T10:01:14;32.92;33.13
75466;HTU21D;64049;46.290;44.240;2023-05-29T10:03:43;32.79;32.70
75466;HTU21D;64049;46.290;44.240;2023-05-29T10:06:11;32.63;32.05
75466;HTU21D;64049;46.290;44.240;2023-05-29T10:08:46;32.34;32.10
75466;HTU21D;64049;46.290;44.240;2023-05-29T10:11:17;32.20;32.02
75466;HTU21D;64049;46.290;44.240;2023-05-29T10:13:51;32.07;32.40
75466;HTU21D;64049;46.290;44.240;2023-05-29T10:16:20;31.89;32.85
75466;HTU21D;64049;46.290;44.240;2023-05-29T10:18:56;31.70;33.65
75466;HTU21D;64049;46.290;44.240;2023-05-29T10:21:24;31.64;34.13
75466;HTU21D;64049;46.290;44.240;2023-05-29T10:23:53;31.50;34.47
75466;HTU21D;64049;46.290;44.240;2023-05-29T10:26:27;31.38;34.44
75466;HTU21D;64049;46.290;44.240;2023-05-29T10:31:33;31.22;35.86
75466;HTU21D;64049;46.290;44.240;2023-05-29T10:36:49;30.97;35.54
75466;HTU21D;64049;46.290;44.240;2023-05-29T10:39:17;30.80;36.05
75466;HTU21D;64049;46.290;44.240;2023-05-29T10:41:46;30.62;36.43
75466;HTU21D;64049;46.290;44.240;2023-05-29T10:44:44;30.47;36.46
75466;HTU21D;64049;46.290;44.240;2023-05-29T10:47:10;30.38;36.95
75466;HTU21D;64049;46.290;44.240;2023-05-29T10:49:38;30.32;37.22
75466;HTU21D;64049;46.290;44.240;2023-05-29T10:52:04;30.32;37.63
75466;HTU21D;64049;46.290;44.240;2023-05-29T10:54:41;30.32;37.96
75466;HTU21D;64049;46.290;44.240;2023-05-29T10:57:15;30.27;37.54
75466;HTU21D;64049;46.290;44.240;2023-05-29T10:59:40;30.21;37.94
75466;HTU21D;64049;46.290;44.240;2023-05-29T11:02:06;30.09;38.12
75466;HTU21D;64049;46.290;44.240;2023-05-29T11:04:34;29.96;38.47
75466;HTU21D;64049;46.290;44.240;2023-05-29T11:07:00;29.81;38.10
75466;HTU21D;64049;46.290;44.240;2023-05-29T11:09:36;29.70;37.66
75466;HTU21D;64049;46.290;44.240;2023-05-29T11:12:23;29.61;37.98
75466;HTU21D;64049;46.290;44.240;2023-05-29T11:15:05;29.52;37.60
75466;HTU21D;64049;46.290;44.240;2023-05-29T11:17:37;29.48;37.68
75466;HTU21D;64049;46.290;44.240;2023-05-29T11:20:16;29.43;38.30
75466;HTU21D;64049;46.290;44.240;2023-05-29T11:22:53;29.33;37.95
75466;HTU21D;64049;46.290;44.240;2023-05-29T11:25:22;29.21;38.14
75466;HTU21D;64049;46.290;44.240;2023-05-29T11:27:49;29.11;37.71
75466;HTU21D;64049;46.290;44.240;2023-05-29T11:30:18;29.01;37.88
75466;HTU21D;64049;46.290;44.240;2023-05-29T11:32:45;28.91;38.37
75466;HTU21D;64049;46.290;44.240;2023-05-29T11:35:19;28.79;38.76
75466;HTU21D;64049;46.290;44.240;2023-05-29T11:37:47;28.71;39.40
75466;HTU21D;64049;46.290;44.240;2023-05-29T11:40:14;28.64;40.36
75466;HTU21D;64049;46.290;44.240;2023-05-29T11:42:45;28.56;40.96
75466;HTU21D;64049;46.290;44.240;2023-05-29T11:45:20;28.44;42.19
75466;HTU21D;64049;46.290;44.240;2023-05-29T11:47:56;28.28;41.49
75466;HTU21D;64049;46.290;44.240;2023-05-29T11:50:26;28.20;42.04
75466;HTU21D;64049;46.290;44.240;2023-05-29T11:52:53;28.16;42.37
75466;HTU21D;64049;46.290;44.240;2023-05-29T11:55:20;28.13;40.02
75466;HTU21D;64049;46.290;44.240;2023-05-29T11:57:47;28.10;39.42
75466;HTU21D;64049;46.290;44.240;2023-05-29T12:00:14;28.02;38.14
75466;HTU21D;64049;46.290;44.240;2023-05-29T12:02:41;27.89;37.50
75466;HTU21D;64049;46.290;44.240;2023-05-29T12:05:16;27.68;37.24
75466;HTU21D;64049;46.290;44.240;2023-05-29T12:10:19;27.46;34.70
75466;HTU21D;64049;46.290;44.240;2023-05-29T12:12:51;27.35;36.17
75466;HTU21D;64049;46.290;44.240;2023-05-29T12:15:18;27.17;38.40
75466;HTU21D;64049;46.290;44.240;2023-05-29T12:17:45;27.02;39.81
75466;HTU21D;64049;46.290;44.240;2023-05-29T12:20:12;26.92;40.50
75466;HTU21D;64049;46.290;44.240;2023-05-29T12:22:40;26.91;41.00
75466;HTU21D;64049;46.290;44.240;2023-05-29T12:27:48;26.81;41.39
75466;HTU21D;64049;46.290;44.240;2023-05-29T12:30:20;26.78;41.47
75466;HTU21D;64049;46.290;44.240;2023-05-29T12:32:48;26.72;41.60
75466;HTU21D;64049;46.290;44.240;2023-05-29T12:37:48;26.62;42.90
75466;HTU21D;64049;46.290;44.240;2023-05-29T12:40:20;26.56;43.33
75466;HTU21D;64049;46.290;44.240;2023-05-29T12:42:48;26.54;43.55
75466;HTU21D;64049;46.290;44.240;2023-05-29T12:45:15;26.52;44.06
75466;HTU21D;64049;46.290;44.240;2023-05-29T12:48:06;26.46;44.38
75466;HTU21D;64049;46.290;44.240;2023-05-29T12:50:43;26.39;44.42
75466;HTU21D;64049;46.290;44.240;2023-05-29T12:53:14;26.32;44.20
75466;HTU21D;64049;46.290;44.240;2023-05-29T12:55:41;26.28;44.21
75466;HTU21D;64049;46.290;44.240;2023-05-29T12:58:12;26.23;44.23
75466;HTU21D;64049;46.290;44.240;2023-05-29T13:00:40;26.21;44.37
75466;HTU21D;64049;46.290;44.240;2023-05-29T13:03:07;26.18;44.06
75466;HTU21D;64049;46.290;44.240;2023-05-29T13:05:33;26.12;43.72
75466;HTU21D;64049;46.290;44.240;2023-05-29T13:07:59;26.08;42.87
75466;HTU21D;64049;46.290;44.240;2023-05-29T13:10:26;26.04;42.43
75466;HTU21D;64049;46.290;44.240;2023-05-29T13:12:53;26.06;41.30
75466;HTU21D;64049;46.290;44.240;2023-05-29T13:15:24;26.05;41.16
75466;HTU21D;64049;46.290;44.240;2023-05-29T13:17:50;26.06;41.32
75466;HTU21D;64049;46.290;44.240;2023-05-29T13:20:17;26.06;41.29
75466;HTU21D;64049;46.290;44.240;2023-05-29T13:22:45;26.05;41.31
75466;HTU21D;64049;46.290;44.240;2023-05-29T13:25:12;26.01;41.78
75466;HTU21D;64049;46.290;44.240;2023-05-29T13:27:41;25.94;42.15
75466;HTU21D;64049;46.290;44.240;2023-05-29T13:30:08;25.83;42.23
75466;HTU21D;64049;46.290;44.240;2023-05-29T13:32:34;25.77;42.01
75466;HTU21D;64049;46.290;44.240;2023-05-29T13:35:01;25.77;42.29
75466;HTU21D;64049;46.290;44.240;2023-05-29T13:37:27;25.72;42.40
75466;HTU21D;64049;46.290;44.240;2023-05-29T13:39:53;25.65;42.29
75466;HTU21D;64049;46.290;44.240;2023-05-29T13:42:20;25.58;42.16
75466;HTU21D;64049;46.290;44.240;2023-05-29T13:44:47;25.52;41.69
75466;HTU21D;64049;46.290;44.240;2023-05-29T13:47:13;25.53;41.00
75466;HTU21D;64049;46.290;44.240;2023-05-29T13:49:40;25.51;40.80
75466;HTU21D;64049;46.290;44.240;2023-05-29T13:52:06;25.45;41.09
75466;HTU21D;64049;46.290;44.240;2023-05-29T13:54:32;25.37;41.24
75466;HTU21D;64049;46.290;44.240;2023-05-29T13:57:02;25.29;41.37
75466;HTU21D;64049;46.290;44.240;2023-05-29T13:59:32;25.22;41.71
75466;HTU21D;64049;46.290;44.240;2023-05-29T14:01:58;25.18;41.96
75466;HTU21D;64049;46.290;44.240;2023-05-29T14:04:24;25.12;42.19
75466;HTU21D;64049;46.290;44.240;2023-05-29T14:06:51;25.07;42.42
75466;HTU21D;64049;46.290;44.240;2023-05-29T14:09:17;25.02;42.84
75466;HTU21D;64049;46.290;44.240;2023-05-29T14:11:48;24.93;43.29
75466;HTU21D;64049;46.290;44.240;2023-05-29T14:14:14;24.88;43.24
75466;HTU21D;64049;46.290;44.240;2023-05-29T14:16:41;24.86;43.22
75466;HTU21D;64049;46.290;44.240;2023-05-29T14:19:07;24.86;43.29
75466;HTU21D;64049;46.290;44.240;2023-05-29T14:21:33;24.85;42.83
75466;HTU21D;64049;46.290;44.240;2023-05-29T14:23:58;24.90;42.20
75466;HTU21D;64049;46.290;44.240;2023-05-29T14:26:24;24.95;41.70
75466;HTU21D;64049;46.290;44.240;2023-05-29T14:28:51;25.02;41.28
75466;HTU21D;64049;46.290;44.240;2023-05-29T14:31:17;25.08;40.78
75466;HTU21D;64049;46.290;44.240;2023-05-29T14:33:43;25.12;40.11
75466;HTU21D;64049;46.290;44.240;2023-05-29T14:36:09;25.16;40.35
75466;HTU21D;64049;46.290;44.240;2023-05-29T14:38:35;25.19;40.53
75466;HTU21D;64049;46.290;44.240;2023-05-29T14:41:02;25.24;41.03
75466;HTU21D;64049;46.290;44.240;2023-05-29T14:43:28;25.81;40.39
75466;HTU21D;64049;46.290;44.240;2023-05-29T14:45:54;26.15;39.84
75466;HTU21D;64049;46.290;44.240;2023-05-29T14:48:19;26.19;39.73
75466;HTU21D;64049;46.290;44.240;2023-05-29T14:50:46;26.03;39.14
75466;HTU21D;64049;46.290;44.240;2023-05-29T14:53:12;25.78;38.59
75466;HTU21D;64049;46.290;44.240;2023-05-29T14:55:38;25.52;39.32
75466;HTU21D;64049;46.290;44.240;2023-05-29T14:58:05;25.34;39.81
75466;HTU21D;64049;46.290;44.240;2023-05-29T15:00:31;25.21;40.35
75466;HTU21D;64049;46.290;44.240;2023-05-29T15:02:57;25.09;40.74
75466;HTU21D;64049;46.290;44.240;2023-05-29T15:05:28;25.06;40.86
75466;HTU21D;64049;46.290;44.240;2023-05-29T15:07:55;25.00;41.18
75466;HTU21D;64049;46.290;44.240;2023-05-29T15:10:25;24.92;41.68
75466;HTU21D;64049;46.290;44.240;2023-05-29T15:12:53;24.84;42.15
75466;HTU21D;64049;46.290;44.240;2023-05-29T15:15:31;24.73;42.77
75466;HTU21D;64049;46.290;44.240;2023-05-29T15:17:57;24.63;43.28
75466;HTU21D;64049;46.290;44.240;2023-05-29T15:20:24;24.51;43.86
75466;HTU21D;64049;46.290;44.240;2023-05-29T15:22:50;24.42;44.42
75466;HTU21D;64049;46.290;44.240;2023-05-29T15:25:17;24.32;44.77
75466;HTU21D;64049;46.290;44.240;2023-05-29T15:27:44;24.20;45.46
75466;HTU21D;64049;46.290;44.240;2023-05-29T15:30:15;24.08;45.84
75466;HTU21D;64049;46.290;44.240;2023-05-29T15:32:43;24.02;46.22
75466;HTU21D;64049;46.290;44.240;2023-05-29T15:35:10;23.98;46.46